createdAt,value
2019-01-29T00:01:35.494Z,4.80
2019-01-29T00:04:05.610Z,4.33
2019-01-29T00:06:36.533Z,5.20
2019-01-29T00:09:09.427Z,5.20
2019-01-29T00:11:39.603Z,4.83
2019-01-29T00:14:09.173Z,5.70
2019-01-29T00:16:38.324Z,5.00
2019-01-29T00:19:07.482Z,5.77
2019-01-29T00:21:36.646Z,5.80
2019-01-29T00:24:06.984Z,5.50
2019-01-29T00:26:36.417Z,5.13
2019-01-29T00:29:05.613Z,6.00
2019-01-29T00:31:35.161Z,5.60
2019-01-29T00:34:07.471Z,6.00
2019-01-29T00:36:36.909Z,6.37
2019-01-29T00:39:08.771Z,5.83
2019-01-29T00:41:37.939Z,5.83
2019-01-29T00:44:07.399Z,5.90
2019-01-29T00:46:36.890Z,6.30
2019-01-29T00:49:06.365Z,6.10
2019-01-29T00:51:35.518Z,5.60
2019-01-29T00:54:05.398Z,6.10
2019-01-29T00:56:34.810Z,5.60
2019-01-29T00:59:04.471Z,5.73
2019-01-29T01:01:33.648Z,5.90
2019-01-29T01:04:03.168Z,6.30
2019-01-29T01:06:32.606Z,6.00
2019-01-29T01:09:01.779Z,6.07
2019-01-29T01:11:31.198Z,6.03
2019-01-29T01:14:00.685Z,5.73
2019-01-29T01:16:30.393Z,5.57
2019-01-29T01:18:59.847Z,5.70
2019-01-29T01:21:28.998Z,5.60
2019-01-29T01:23:58.657Z,5.70
2019-01-29T01:26:28.655Z,5.73
2019-01-29T01:28:58.201Z,5.53
2019-01-29T01:31:27.704Z,5.87
2019-01-29T01:33:57.161Z,6.30
2019-01-29T01:36:26.462Z,6.07
2019-01-29T01:38:55.880Z,5.83
2019-01-29T01:41:25.401Z,6.17
2019-01-29T01:43:54.572Z,5.93
2019-01-29T01:46:24.084Z,6.27
2019-01-29T01:48:53.247Z,6.00
2019-01-29T01:51:22.798Z,5.80
2019-01-29T01:53:53.038Z,6.07
2019-01-29T01:56:22.903Z,6.43
2019-01-29T01:58:52.047Z,6.20
2019-01-29T02:01:21.218Z,6.17
2019-01-29T02:03:50.656Z,6.03
2019-01-29T02:06:19.817Z,5.90
2019-01-29T02:08:49.309Z,6.23
2019-01-29T02:11:19.282Z,5.67
2019-01-29T02:13:48.887Z,6.43
2019-01-29T02:16:18.082Z,6.23
2019-01-29T02:18:47.534Z,6.17
2019-01-29T02:21:16.825Z,6.13
2019-01-29T02:23:45.981Z,6.10
2019-01-29T02:26:15.425Z,5.80
2019-01-29T02:28:44.593Z,6.03
2019-01-29T02:31:13.775Z,6.20
2019-01-29T02:33:43.627Z,6.53
2019-01-29T02:36:13.678Z,11.80
2019-01-29T02:38:42.829Z,8.27
2019-01-29T02:41:12.329Z,7.83
2019-01-29T02:43:41.951Z,8.30
2019-01-29T02:46:11.188Z,7.43
2019-01-29T02:48:40.683Z,9.03
2019-01-29T02:51:10.123Z,9.17
2019-01-29T02:53:39.292Z,8.90
2019-01-29T02:56:08.769Z,8.50
2019-01-29T02:58:38.717Z,8.73
2019-01-29T03:01:08.171Z,9.43
2019-01-29T03:03:37.328Z,8.77
2019-01-29T03:06:07.433Z,8.10
2019-01-29T03:08:36.612Z,8.23
2019-01-29T03:11:07.069Z,8.10
2019-01-29T03:13:36.222Z,8.57
2019-01-29T03:16:06.036Z,8.67
2019-01-29T03:18:35.872Z,9.33
2019-01-29T03:21:05.453Z,8.63
2019-01-29T03:23:34.603Z,9.00
2019-01-29T03:26:03.795Z,8.13
2019-01-29T03:28:32.944Z,7.23
2019-01-29T03:31:03.295Z,7.40
2019-01-29T03:33:32.448Z,8.07
2019-01-29T03:36:02.566Z,7.17
2019-01-29T03:38:31.997Z,7.27
2019-01-29T03:41:01.161Z,7.33
2019-01-29T03:43:30.601Z,6.63
2019-01-29T03:45:59.767Z,7.10
2019-01-29T03:48:29.263Z,6.17
2019-01-29T03:50:59.562Z,5.90
2019-01-29T03:53:37.785Z,6.30
2019-01-29T03:56:00.683Z,5.87
2019-01-29T03:58:30.652Z,5.93
2019-01-29T04:01:00.374Z,5.37
2019-01-29T04:03:31.342Z,5.10
2019-01-29T04:06:00.477Z,5.57
2019-01-29T04:08:29.919Z,5.00
2019-01-29T04:10:59.620Z,5.87
2019-01-29T04:13:28.818Z,5.30
2019-01-29T04:15:58.234Z,5.80
2019-01-29T04:18:27.411Z,5.70
2019-01-29T04:20:56.565Z,5.93
2019-01-29T04:23:26.296Z,5.00
2019-01-29T04:25:55.730Z,5.33
2019-01-29T04:28:25.680Z,5.60
2019-01-29T04:30:55.618Z,5.00
2019-01-29T04:33:25.588Z,5.03
2019-01-29T04:35:54.742Z,5.30
2019-01-29T04:38:23.920Z,5.03
2019-01-29T04:40:54.184Z,5.40
2019-01-29T04:43:24.542Z,5.70
2019-01-29T04:45:54.045Z,5.93
2019-01-29T04:48:23.829Z,6.07
2019-01-29T04:50:54.012Z,5.50
2019-01-29T04:53:23.205Z,5.60
2019-01-29T04:55:52.692Z,5.90
2019-01-29T04:58:22.168Z,5.27
2019-01-29T05:00:52.681Z,5.73
2019-01-29T05:03:21.862Z,4.77
2019-01-29T05:05:51.012Z,5.40
2019-01-29T05:08:21.368Z,5.63
2019-01-29T05:10:51.276Z,5.90
2019-01-29T05:13:20.708Z,6.17
2019-01-29T05:15:50.146Z,6.10
2019-01-29T05:18:19.310Z,6.57
2019-01-29T05:20:48.510Z,6.73
2019-01-29T05:23:18.474Z,6.70
2019-01-29T05:25:48.270Z,6.50
2019-01-29T05:28:17.419Z,6.17
2019-01-29T05:30:47.457Z,6.53
2019-01-29T05:33:16.886Z,6.90
2019-01-29T05:35:46.742Z,7.23
2019-01-29T05:38:15.912Z,7.53
2019-01-29T05:40:45.091Z,7.50
2019-01-29T05:43:14.506Z,7.60
2019-01-29T05:45:43.957Z,8.23
2019-01-29T05:48:13.643Z,7.97
2019-01-29T05:50:42.859Z,7.80
2019-01-29T05:53:12.310Z,8.20
2019-01-29T05:55:43.053Z,7.70
2019-01-29T05:58:12.988Z,7.93
2019-01-29T06:00:42.348Z,7.63
2019-01-29T06:03:11.755Z,7.97
2019-01-29T06:05:40.935Z,7.97
2019-01-29T06:08:10.863Z,8.50
2019-01-29T06:10:40.048Z,8.67
2019-01-29T06:13:09.298Z,8.20
2019-01-29T06:15:38.478Z,8.90
2019-01-29T06:18:07.948Z,8.83
2019-01-29T06:20:37.162Z,8.40
2019-01-29T06:23:06.898Z,8.53
2019-01-29T06:25:36.559Z,7.87
2019-01-29T06:28:05.744Z,7.87
2019-01-29T06:30:35.218Z,7.70
2019-01-29T06:33:04.386Z,8.10
2019-01-29T06:35:33.833Z,7.90
2019-01-29T06:38:03.277Z,7.67
2019-01-29T06:40:32.427Z,7.47
2019-01-29T06:43:01.606Z,10.27
2019-01-29T06:45:30.785Z,10.00
2019-01-29T06:48:00.653Z,11.27
2019-01-29T06:50:29.824Z,10.20
2019-01-29T06:52:59.285Z,10.10
2019-01-29T06:55:28.712Z,10.17
2019-01-29T06:57:58.251Z,9.77
2019-01-29T07:00:31.544Z,9.23
2019-01-29T07:03:02.099Z,11.17
2019-01-29T07:05:31.563Z,12.13
2019-01-29T07:08:00.770Z,13.13
2019-01-29T07:10:30.037Z,21.23
2019-01-29T07:12:59.580Z,12.23
2019-01-29T07:15:47.270Z,10.23
2019-01-29T07:18:35.530Z,10.93
2019-01-29T07:21:07.622Z,9.27
2019-01-29T07:23:36.843Z,10.47
2019-01-29T07:26:06.230Z,10.33
2019-01-29T07:28:35.654Z,10.07
2019-01-29T07:31:05.566Z,11.77
2019-01-29T07:33:34.767Z,11.30
2019-01-29T07:36:04.748Z,10.53
2019-01-29T07:38:34.739Z,11.70
2019-01-29T07:41:05.095Z,12.90
2019-01-29T07:43:34.294Z,11.53
2019-01-29T07:46:04.568Z,11.87
2019-01-29T07:48:33.783Z,10.00
2019-01-29T07:51:03.232Z,11.33
2019-01-29T07:53:32.760Z,10.87
2019-01-29T07:56:03.220Z,9.87
2019-01-29T07:58:33.188Z,10.07
2019-01-29T08:01:04.598Z,10.00
2019-01-29T08:03:38.274Z,10.37
2019-01-29T08:06:05.979Z,10.40
2019-01-29T08:08:38.408Z,9.70
2019-01-29T08:11:09.260Z,8.93
2019-01-29T08:13:39.346Z,9.23
2019-01-29T08:16:08.519Z,9.93
2019-01-29T08:18:37.781Z,36.03
2019-01-29T08:21:07.264Z,39.63
2019-01-29T08:23:36.505Z,28.03
2019-01-29T08:26:05.779Z,12.47
2019-01-29T08:28:35.066Z,10.30
2019-01-29T08:31:04.522Z,7.80
2019-01-29T08:33:33.772Z,9.97
2019-01-29T08:36:03.553Z,7.70
2019-01-29T08:38:32.901Z,5.97
2019-01-29T08:41:02.327Z,6.60
2019-01-29T08:43:31.493Z,6.20
2019-01-29T08:46:00.947Z,6.93
2019-01-29T08:48:30.155Z,6.70
2019-01-29T08:50:59.449Z,7.07
2019-01-29T08:53:29.452Z,6.67
2019-01-29T08:55:59.496Z,6.03
2019-01-29T08:58:30.432Z,6.57
2019-01-29T09:01:00.357Z,6.10
2019-01-29T09:03:29.510Z,6.13
2019-01-29T09:05:58.801Z,6.27
2019-01-29T09:08:27.994Z,6.27
2019-01-29T09:10:58.284Z,5.67
2019-01-29T09:13:28.846Z,6.27
2019-01-29T09:15:58.028Z,5.83
2019-01-29T09:18:27.186Z,5.73
2019-01-29T09:20:57.105Z,5.87
2019-01-29T09:23:29.389Z,5.27
2019-01-29T09:25:59.179Z,5.70
2019-01-29T09:28:28.387Z,6.33
2019-01-29T09:30:57.547Z,5.40
2019-01-29T09:33:26.766Z,5.60
2019-01-29T09:35:55.948Z,5.53
2019-01-29T09:38:25.928Z,5.80
2019-01-29T09:40:55.370Z,5.80
2019-01-29T09:43:24.847Z,6.00
2019-01-29T09:45:54.045Z,5.50
2019-01-29T09:48:24.530Z,6.73
2019-01-29T09:50:53.824Z,7.37
2019-01-29T09:53:22.964Z,7.13
2019-01-29T09:55:52.176Z,7.17
2019-01-29T09:58:21.528Z,5.97
2019-01-29T10:00:50.686Z,6.30
2019-01-29T10:03:19.837Z,6.50
2019-01-29T10:05:49.019Z,5.53
2019-01-29T10:08:18.197Z,5.67
2019-01-29T10:10:47.196Z,6.50
2019-01-29T10:13:16.345Z,5.67
2019-01-29T10:15:45.875Z,5.30
2019-01-29T10:18:15.363Z,4.50
2019-01-29T10:20:44.538Z,4.03
2019-01-29T10:23:14.539Z,5.07
2019-01-29T10:25:44.486Z,6.67
2019-01-29T10:28:13.718Z,6.70
2019-01-29T10:30:43.040Z,7.10
2019-01-29T10:33:12.456Z,7.53
2019-01-29T10:35:41.690Z,8.60
2019-01-29T10:38:10.947Z,8.57
2019-01-29T10:40:40.917Z,8.93
2019-01-29T10:43:10.053Z,8.90
2019-01-29T10:45:39.213Z,8.60
2019-01-29T10:48:08.390Z,8.80
2019-01-29T10:50:37.787Z,8.67
2019-01-29T10:53:07.059Z,8.97
2019-01-29T10:55:36.216Z,8.10
2019-01-29T10:58:05.891Z,8.37
2019-01-29T11:00:40.247Z,7.87
2019-01-29T11:03:10.390Z,7.50
2019-01-29T11:05:39.542Z,7.93
2019-01-29T11:08:08.729Z,7.57
2019-01-29T11:10:39.090Z,7.63
2019-01-29T11:13:08.271Z,7.40
2019-01-29T11:15:39.730Z,7.67
2019-01-29T11:18:12.063Z,6.63
2019-01-29T11:20:41.399Z,7.63
2019-01-29T11:23:11.674Z,7.17
2019-01-29T11:25:40.821Z,7.83
2019-01-29T11:28:11.616Z,7.30
2019-01-29T11:30:42.744Z,6.40
2019-01-29T11:33:12.480Z,6.63
2019-01-29T11:35:41.629Z,6.47
2019-01-29T11:38:11.208Z,6.87
2019-01-29T11:40:40.751Z,6.90
2019-01-29T11:43:11.538Z,7.17
2019-01-29T11:45:44.539Z,7.57
2019-01-29T11:48:13.724Z,7.30
2019-01-29T11:50:42.931Z,7.50
2019-01-29T11:53:12.340Z,8.90
2019-01-29T11:55:43.968Z,8.00
2019-01-29T11:58:13.422Z,8.50
2019-01-29T12:00:47.513Z,8.83
2019-01-29T12:03:17.639Z,23.07
2019-01-29T12:05:47.937Z,22.47
2019-01-29T12:08:17.340Z,20.70
2019-01-29T12:10:46.606Z,7.90
2019-01-29T12:13:16.583Z,7.90
2019-01-29T12:15:45.752Z,7.43
2019-01-29T12:18:15.230Z,15.30
2019-01-29T12:20:44.694Z,7.63
2019-01-29T12:23:14.661Z,8.97
2019-01-29T12:25:44.101Z,8.40
2019-01-29T12:28:13.278Z,8.30
2019-01-29T12:30:42.727Z,5.87
2019-01-29T12:33:12.354Z,6.20
2019-01-29T12:35:41.766Z,5.30
2019-01-29T12:38:11.286Z,6.00
2019-01-29T12:40:40.984Z,5.37
2019-01-29T12:43:11.230Z,5.83
2019-01-29T12:45:40.393Z,6.20
2019-01-29T12:48:10.362Z,7.10
2019-01-29T12:50:43.476Z,8.33
2019-01-29T12:53:14.700Z,5.90
2019-01-29T12:55:44.427Z,6.30
2019-01-29T12:58:13.610Z,5.90
2019-01-29T13:00:45.766Z,5.87
2019-01-29T13:03:16.140Z,5.70
2019-01-29T13:05:45.287Z,5.47
2019-01-29T13:08:14.564Z,5.93
2019-01-29T13:10:44.004Z,5.57
2019-01-29T13:13:15.872Z,6.57
2019-01-29T13:15:45.708Z,5.77
2019-01-29T13:18:15.653Z,6.30
2019-01-29T13:20:45.516Z,6.33
2019-01-29T13:23:15.020Z,6.20
2019-01-29T13:25:44.502Z,5.73
2019-01-29T13:28:14.418Z,5.77
2019-01-29T13:30:44.399Z,5.83
2019-01-29T13:33:15.321Z,6.67
2019-01-29T13:35:44.905Z,6.60
2019-01-29T13:38:14.097Z,6.00
2019-01-29T13:40:43.391Z,6.33
2019-01-29T13:43:12.816Z,6.93
2019-01-29T13:45:43.209Z,6.73
2019-01-29T13:48:12.713Z,7.17
2019-01-29T13:50:55.765Z,7.07
2019-01-29T13:53:25.197Z,7.97
2019-01-29T13:55:54.388Z,8.37
2019-01-29T13:58:25.549Z,8.10
2019-01-29T14:00:56.328Z,7.80
2019-01-29T14:03:26.273Z,8.43
2019-01-29T14:05:55.772Z,9.30
2019-01-29T14:08:25.179Z,9.13
2019-01-29T14:10:54.367Z,9.87
2019-01-29T14:13:23.534Z,10.30
2019-01-29T14:15:54.893Z,9.33
2019-01-29T14:18:27.217Z,10.27
2019-01-29T14:20:57.021Z,8.27
2019-01-29T14:23:26.457Z,8.60
2019-01-29T14:25:55.932Z,9.47
2019-01-29T14:28:25.098Z,9.47
2019-01-29T14:30:54.532Z,10.27
2019-01-29T14:33:23.715Z,8.93
2019-01-29T14:35:53.165Z,9.60
2019-01-29T14:38:59.708Z,9.83
2019-01-29T14:41:28.912Z,10.30
2019-01-29T14:43:59.838Z,9.20
2019-01-29T14:46:29.035Z,10.60
2019-01-29T14:48:59.245Z,10.17
2019-01-29T14:51:29.262Z,10.47
2019-01-29T14:53:59.248Z,9.37
2019-01-29T14:56:28.532Z,11.73
2019-01-29T14:58:58.031Z,8.77
2019-01-29T15:01:27.809Z,9.47
2019-01-29T15:03:56.950Z,10.40
2019-01-29T15:06:32.578Z,9.77
2019-01-29T15:08:59.280Z,9.67
2019-01-29T15:11:32.791Z,9.60
2019-01-29T15:14:02.448Z,10.50
2019-01-29T15:17:03.106Z,10.10
2019-01-29T15:19:33.615Z,10.67
2019-01-29T15:22:04.366Z,9.40
2019-01-29T15:24:33.755Z,8.70
2019-01-29T15:27:05.870Z,9.60
2019-01-29T15:29:33.910Z,9.27
2019-01-29T15:32:03.264Z,8.80
2019-01-29T15:34:35.869Z,7.93
2019-01-29T15:37:06.458Z,8.13
2019-01-29T15:39:35.764Z,8.23
2019-01-29T15:42:04.937Z,7.97
2019-01-29T15:44:34.133Z,9.73
2019-01-29T15:47:03.310Z,8.03
2019-01-29T15:49:34.769Z,7.87
2019-01-29T15:52:05.651Z,7.83
2019-01-29T15:54:37.000Z,8.23
2019-01-29T15:57:13.840Z,8.77
2019-01-29T15:59:42.756Z,10.73
2019-01-29T16:02:10.629Z,9.57
2019-01-29T16:04:39.831Z,8.53
2019-01-29T16:07:08.977Z,9.03
2019-01-29T16:09:38.149Z,8.33
2019-01-29T16:12:07.383Z,7.97
2019-01-29T16:14:36.894Z,10.53
2019-01-29T16:17:06.056Z,11.90
2019-01-29T16:19:35.240Z,11.63
2019-01-29T16:22:04.912Z,9.10
2019-01-29T16:24:34.890Z,8.93
2019-01-29T16:27:07.009Z,9.37
2019-01-29T16:29:34.949Z,11.40
2019-01-29T16:32:04.312Z,10.10
2019-01-29T16:34:33.501Z,11.63
2019-01-29T16:37:03.417Z,14.70
2019-01-29T16:39:32.847Z,20.20
2019-01-29T16:42:02.008Z,11.53
2019-01-29T16:44:33.495Z,16.30
2019-01-29T16:47:03.308Z,18.50
2019-01-29T16:49:32.775Z,12.87
2019-01-29T16:52:02.246Z,12.30
2019-01-29T16:54:31.578Z,13.80
2019-01-29T16:57:00.746Z,27.53
2019-01-29T16:59:29.964Z,16.37
2019-01-29T17:01:59.148Z,13.53
2019-01-29T17:04:28.929Z,10.97
2019-01-29T17:06:59.010Z,10.73
2019-01-29T17:09:28.177Z,13.13
2019-01-29T17:11:57.394Z,12.50
2019-01-29T17:14:29.338Z,11.30
2019-01-29T17:17:00.943Z,9.57
2019-01-29T17:19:30.483Z,9.37
2019-01-29T17:22:00.914Z,10.50
2019-01-29T17:24:30.716Z,12.57
2019-01-29T17:27:00.241Z,8.50
2019-01-29T17:29:30.296Z,7.80
2019-01-29T17:32:00.417Z,7.37
2019-01-29T17:34:29.990Z,16.83
2019-01-29T17:36:59.246Z,8.87
2019-01-29T17:39:28.467Z,6.47
2019-01-29T17:41:57.665Z,6.37
2019-01-29T17:44:27.110Z,6.37
2019-01-29T17:46:56.477Z,6.20
2019-01-29T17:49:27.517Z,6.27
2019-01-29T17:51:56.726Z,6.33
2019-01-29T17:54:26.470Z,5.97
2019-01-29T17:56:55.678Z,5.40
2019-01-29T17:59:24.849Z,5.50
2019-01-29T18:01:54.285Z,5.40
2019-01-29T18:04:23.449Z,6.83
2019-01-29T18:06:52.696Z,6.80
2019-01-29T18:09:21.987Z,8.53
2019-01-29T18:11:56.967Z,8.10
2019-01-29T18:14:27.399Z,7.90
2019-01-29T18:16:57.652Z,7.10
2019-01-29T18:19:28.498Z,7.27
2019-01-29T18:21:58.515Z,7.00
2019-01-29T18:24:27.720Z,7.13
2019-01-29T18:26:57.133Z,8.57
2019-01-29T18:29:26.980Z,7.83
2019-01-29T18:31:57.300Z,6.67
2019-01-29T18:34:27.975Z,5.63
2019-01-29T18:36:57.301Z,5.83
2019-01-29T18:39:28.190Z,6.80
2019-01-29T18:41:57.736Z,8.83
2019-01-29T18:44:30.528Z,6.47
2019-01-29T18:47:00.223Z,6.70
2019-01-29T18:49:30.338Z,6.20
2019-01-29T18:51:59.542Z,7.93
2019-01-29T18:54:29.074Z,9.50
2019-01-29T18:56:58.288Z,8.23
2019-01-29T18:59:28.155Z,9.17
2019-01-29T19:01:57.294Z,7.70
2019-01-29T19:04:28.768Z,7.90
2019-01-29T19:06:58.292Z,8.90
2019-01-29T19:09:27.655Z,7.67
2019-01-29T19:11:57.056Z,7.43
2019-01-29T19:14:27.547Z,9.63
2019-01-29T19:17:01.544Z,8.83
2019-01-29T19:19:31.386Z,6.77
2019-01-29T19:22:00.871Z,7.07
2019-01-29T19:24:30.140Z,7.03
2019-01-29T19:26:59.320Z,7.90
2019-01-29T19:29:30.668Z,7.97
2019-01-29T19:32:00.703Z,7.33
2019-01-29T19:34:30.050Z,7.80
2019-01-29T19:36:59.515Z,8.70
2019-01-29T19:39:28.725Z,8.33
2019-01-29T19:41:57.915Z,9.20
2019-01-29T19:44:27.117Z,9.23
2019-01-29T19:46:56.653Z,10.27
2019-01-29T19:49:26.194Z,10.17
2019-01-29T19:51:57.460Z,9.23
2019-01-29T19:54:28.150Z,7.87
2019-01-29T19:56:57.759Z,7.83
2019-01-29T19:59:27.212Z,7.87
2019-01-29T20:01:57.489Z,7.93
2019-01-29T20:04:26.643Z,7.47
2019-01-29T20:06:55.836Z,7.97
2019-01-29T20:09:25.454Z,7.40
2019-01-29T20:11:54.985Z,7.00
2019-01-29T20:14:24.349Z,7.77
2019-01-29T20:16:53.550Z,7.37
2019-01-29T20:19:22.845Z,8.17
2019-01-29T20:21:52.038Z,7.93
2019-01-29T20:24:21.632Z,7.53
2019-01-29T20:26:50.901Z,8.87
2019-01-29T20:29:20.546Z,7.70
2019-01-29T20:31:50.548Z,7.23
2019-01-29T20:34:21.744Z,7.30
2019-01-29T20:36:51.840Z,7.70
2019-01-29T20:39:21.017Z,7.00
2019-01-29T20:41:51.984Z,7.70
2019-01-29T20:44:21.113Z,7.13
2019-01-29T20:46:50.406Z,6.80
2019-01-29T20:49:19.780Z,6.73
2019-01-29T20:51:50.278Z,7.03
2019-01-29T20:54:22.074Z,7.00
2019-01-29T20:56:52.086Z,6.57
2019-01-29T20:59:21.273Z,7.03
2019-01-29T21:01:51.236Z,6.67
2019-01-29T21:04:22.105Z,6.80
2019-01-29T21:06:51.264Z,10.27
2019-01-29T21:09:20.510Z,11.37
2019-01-29T21:11:50.522Z,10.03
2019-01-29T21:14:25.478Z,8.10
2019-01-29T21:16:55.465Z,9.63
2019-01-29T21:19:24.871Z,10.47
2019-01-29T21:21:54.047Z,9.30
2019-01-29T21:24:23.271Z,8.17
2019-01-29T21:26:52.941Z,8.40
2019-01-29T21:29:22.149Z,8.37
2019-01-29T21:31:51.350Z,8.00
2019-01-29T21:34:22.007Z,8.73
2019-01-29T21:36:52.265Z,7.97
2019-01-29T21:39:21.873Z,7.27
2019-01-29T21:41:52.499Z,6.67
2019-01-29T21:44:21.790Z,5.70
2019-01-29T21:46:50.982Z,6.73
2019-01-29T21:49:20.501Z,6.10
2019-01-29T21:51:50.031Z,6.47
2019-01-29T21:54:20.262Z,6.33
2019-01-29T21:56:49.908Z,6.30
2019-01-29T21:59:19.175Z,5.77
2019-01-29T22:01:48.552Z,6.57
2019-01-29T22:04:17.749Z,5.97
2019-01-29T22:06:46.934Z,7.30
2019-01-29T22:09:17.212Z,7.33
2019-01-29T22:11:46.361Z,7.70
2019-01-29T22:14:15.541Z,7.70
2019-01-29T22:16:44.724Z,7.67
2019-01-29T22:19:13.928Z,7.47
2019-01-29T22:21:43.075Z,6.43
2019-01-29T22:24:12.293Z,6.40
2019-01-29T22:26:41.760Z,7.13
2019-01-29T22:29:10.931Z,18.83
2019-01-29T22:31:41.037Z,11.77
2019-01-29T22:34:10.307Z,19.13
2019-01-29T22:36:39.652Z,9.73
2019-01-29T22:39:09.374Z,9.27
2019-01-29T22:41:39.954Z,9.47
2019-01-29T22:44:09.206Z,11.07
2019-01-29T22:46:38.410Z,9.67
2019-01-29T22:49:08.031Z,9.43
2019-01-29T22:51:37.510Z,8.97
2019-01-29T22:54:08.140Z,8.67
2019-01-29T22:56:37.303Z,9.17
2019-01-29T22:59:07.327Z,9.10
2019-01-29T23:01:39.455Z,8.87
2019-01-29T23:04:12.842Z,9.23
2019-01-29T23:07:08.861Z,9.87
2019-01-29T23:09:38.048Z,10.33
2019-01-29T23:12:07.428Z,9.77
2019-01-29T23:14:36.642Z,10.30
2019-01-29T23:17:05.898Z,9.40
2019-01-29T23:19:35.391Z,9.17
2019-01-29T23:22:04.600Z,9.43
2019-01-29T23:24:33.759Z,8.67
2019-01-29T23:27:02.939Z,10.20
2019-01-29T23:29:42.967Z,11.67
2019-01-29T23:32:03.781Z,11.30
2019-01-29T23:34:32.955Z,10.73
2019-01-29T23:37:02.943Z,11.20
2019-01-29T23:39:33.060Z,10.27
2019-01-29T23:42:02.261Z,10.30
2019-01-29T23:44:32.488Z,10.80
2019-01-29T23:47:02.737Z,11.20
2019-01-29T23:49:32.175Z,11.37
2019-01-29T23:52:01.385Z,10.97
2019-01-29T23:54:30.897Z,9.87
2019-01-29T23:57:00.103Z,9.13
2019-01-29T23:59:29.260Z,11.47
